Time;durP1;ratioP1;P1;durP2;ratioP2;P2;SDS_P1;SDS_P2;PMS_P1;PMS_P2;Temp;Humidity;BMP_temperature;BMP_pressure;BME280_temperature;BME280_humidity;BME280_pressure;Samples;Min_cycle;Max_cycle;Signal;HPM_P1;HPM_P2
2022/01/23 00:01:46;;;;;;;17.02;7.70;;;;;;;-7.38;100.00;99060.75;5150882;27;20057;-51
2022/01/23 00:04:12;;;;;;;18.23;8.20;;;;;;;-7.39;100.00;99083.94;5151357;27;20058;-49
2022/01/23 00:06:38;;;;;;;12.57;7.07;;;;;;;-7.49;100.00;99069.69;5151501;27;20069;-51
2022/01/23 00:09:05;;;;;;;19.38;8.50;;;;;;;-7.60;100.00;99112.19;5151271;27;20047;-50
2022/01/23 00:11:35;;;;;;;15.55;8.40;;;;;;;-7.61;100.00;99139.03;5151248;27;20527;-50
2022/01/23 00:19:27;;;;;;;18.02;7.75;;;;;;;-7.92;100.00;99177.75;5151229;27;20551;-49
2022/01/23 00:21:57;;;;;;;20.80;9.98;;;;;;;-7.89;100.00;99211.84;5150864;27;20055;-52
2022/01/23 00:32:37;;;;;;;;;;;;;;;-8.03;100.00;99307.13;5151378;27;20068;-50
2022/01/23 00:35:04;;;;;;;13.68;7.03;;;;;;;-7.98;100.00;99325.84;5150699;27;19927;-49
2022/01/23 00:37:30;;;;;;;16.33;7.85;;;;;;;-8.17;100.00;99325.25;5150648;27;20057;-50
2022/01/23 00:39:56;;;;;;;15.23;8.02;;;;;;;-8.13;100.00;99353.00;5150982;27;20480;-49
2022/01/23 00:42:23;;;;;;;23.08;9.43;;;;;;;-7.98;100.00;99399.53;5151388;27;20784;-51
2022/01/23 00:44:56;;;;;;;21.17;8.40;;;;;;;-8.01;100.00;99415.97;5150728;27;20468;-50
2022/01/23 00:47:22;;;;;;;19.48;8.32;;;;;;;-7.99;100.00;99404.06;5151041;27;20054;-50
2022/01/23 00:49:48;;;;;;;19.77;8.05;;;;;;;-8.12;100.00;99391.03;5150611;27;20098;-52
2022/01/23 00:52:17;;;;;;;19.83;8.35;;;;;;;-8.26;100.00;99385.19;5150808;27;20061;-52
2022/01/23 00:54:43;;;;;;;15.05;7.30;;;;;;;-8.24;100.00;99391.06;5150470;27;20103;-50
2022/01/23 00:57:11;;;;;;;24.80;10.07;;;;;;;-8.22;100.00;99414.78;5150668;27;20076;-53
2022/01/23 00:59:38;;;;;;;25.52;9.57;;;;;;;-8.16;100.00;99432.44;5150424;27;20107;-51
2022/01/23 01:02:04;;;;;;;17.40;8.50;;;;;;;-8.16;100.00;99451.91;5150101;27;20046;-49
2022/01/23 01:04:30;;;;;;;20.40;8.95;;;;;;;-8.19;100.00;99452.38;5150468;27;20051;-53
2022/01/23 01:06:56;;;;;;;27.23;9.50;;;;;;;-8.19;100.00;99467.53;5150317;27;20072;-51
2022/01/23 01:09:23;;;;;;;20.75;8.30;;;;;;;-8.22;100.00;99474.09;5150740;27;20057;-50
2022/01/23 01:11:58;;;;;;;16.80;9.55;;;;;;;-8.05;100.00;99495.47;5153325;27;20053;-49
2022/01/23 01:14:34;;;;;;;19.85;9.68;;;;;;;-8.02;100.00;99492.34;5154109;27;20051;-52
2022/01/23 01:17:09;;;;;;;17.50;7.45;;;;;;;-7.89;100.00;99510.69;5154077;27;20573;-52
2022/01/23 01:30:39;;;;;;;;;;;;;;;-7.77;100.00;99509.84;5154179;27;20053;-49
2022/01/23 01:33:18;;;;;;;21.95;8.45;;;;;;;-7.73;100.00;99501.16;5153755;27;19930;-51
2022/01/23 01:35:50;;;;;;;29.05;10.25;;;;;;;-7.66;100.00;99499.19;5153871;27;20058;-50
2022/01/23 01:38:17;;;;;;;19.80;9.80;;;;;;;-7.57;100.00;99495.06;5153260;27;20103;-52
2022/01/23 01:40:44;;;;;;;17.73;8.68;;;;;;;-7.51;100.00;99495.16;5153747;27;20054;-50
2022/01/23 01:43:10;;;;;;;21.15;6.95;;;;;;;-7.35;100.00;99502.41;5153407;27;20054;-52
2022/01/23 01:45:39;;;;;;;20.30;8.40;;;;;;;-7.36;100.00;99490.94;5153686;27;20516;-50
2022/01/23 01:48:06;;;;;;;19.50;9.38;;;;;;;-7.38;100.00;99473.56;5153120;27;20047;-50
2022/01/23 01:50:33;;;;;;;17.50;8.73;;;;;;;-7.35;100.00;99462.44;5153601;27;20096;-49
2022/01/23 01:53:01;;;;;;;25.35;9.55;;;;;;;-7.27;100.00;99453.25;5153294;27;20043;-50
2022/01/23 01:55:29;;;;;;;16.65;8.57;;;;;;;-7.24;100.00;99434.09;5153387;27;20429;-50
2022/01/23 01:58:02;;;;;;;13.50;7.53;;;;;;;-7.24;100.00;99458.09;5153015;27;20421;-50
2022/01/23 02:00:45;;;;;;;15.02;7.57;;;;;;;-7.36;100.00;99434.19;5153270;27;20129;-49
2022/01/23 02:08:17;;;;;;;14.73;6.07;;;;;;;-7.45;100.00;99428.44;5153100;27;20057;-49
2022/01/23 02:08:56;;;;;;;;;;;;;;;-7.57;100.00;99465.78;5153670;27;20061;-49
2022/01/23 02:11:34;;;;;;;13.48;6.93;;;;;;;-7.48;100.00;99490.19;5152802;27;19970;-52
2022/01/23 02:14:13;;;;;;;20.52;9.05;;;;;;;-7.60;100.00;99479.59;5152860;27;20051;-50
2022/01/23 02:17:08;;;;;;;20.73;7.35;;;;;;;-7.60;100.00;99508.88;5153070;27;20051;-49
2022/01/23 02:22:46;;;;;;;19.70;8.13;;;;;;;-7.39;100.00;99550.00;5152780;27;20053;-49
2022/01/23 02:52:54;;;;;;;;;;;;;;;-7.54;100.00;99594.16;5152917;27;20046;-52
2022/01/23 02:55:24;;;;;;;19.33;7.88;;;;;;;-7.47;100.00;99627.59;5152160;27;19966;-51
2022/01/23 02:57:54;;;;;;;21.27;9.15;;;;;;;-7.53;100.00;99627.72;5152460;27;20091;-51
2022/01/23 03:00:23;;;;;;;18.80;8.15;;;;;;;-7.46;100.00;99647.88;5152283;27;20050;-52
2022/01/23 03:02:52;;;;;;;20.80;9.48;;;;;;;-7.46;100.00;99655.88;5151730;27;20581;-52
2022/01/23 03:05:33;;;;;;;23.23;8.07;;;;;;;-7.50;100.00;99636.06;5152133;27;20072;-49
2022/01/23 03:08:04;;;;;;;28.38;9.23;;;;;;;-7.47;100.00;99624.94;5151893;27;20133;-52
2022/01/23 03:10:36;;;;;;;17.17;8.52;;;;;;;-7.48;100.00;99618.00;5152060;27;20051;-49
2022/01/23 03:13:37;;;;;;;20.75;8.73;;;;;;;-7.38;100.00;99620.06;5151891;27;20137;-50
2022/01/23 03:25:00;;;;;;;11.05;7.03;;;;;;;-7.53;100.00;99606.44;5068001;28;20098;-49
2022/01/23 03:27:53;;;;;;;19.25;8.55;;;;;;;-7.49;100.00;99616.41;5125995;27;20050;-49
2022/01/23 03:30:23;;;;;;;17.42;8.57;;;;;;;-7.32;100.00;99647.63;5151937;27;20051;-51
2022/01/23 03:32:51;;;;;;;14.93;6.45;;;;;;;-7.48;100.00;99641.97;5151131;27;20051;-50
2022/01/23 03:35:19;;;;;;;19.90;9.63;;;;;;;-7.69;100.00;99622.09;5152025;27;20054;-49
2022/01/23 03:37:46;;;;;;;17.50;8.13;;;;;;;-7.80;100.00;99652.19;5151932;27;20043;-51
2022/01/23 03:40:13;;;;;;;18.40;8.07;;;;;;;-7.70;100.00;99679.03;5151667;27;20061;-49
2022/01/23 03:42:42;;;;;;;23.50;10.52;;;;;;;-7.66;100.00;99695.38;5151584;27;20047;-49
2022/01/23 03:45:28;;;;;;;18.17;7.70;;;;;;;-7.75;100.00;99699.44;5151392;27;20086;-51
2022/01/23 03:49:30;;;;;;;16.23;8.13;;;;;;;-7.68;100.00;99727.53;5151551;27;20047;-52
2022/01/23 03:50:47;;;;;;;15.55;7.82;;;;;;;-7.71;100.00;99751.97;5151336;27;20114;-49
2022/01/23 03:53:14;;;;;;;19.20;8.52;;;;;;;-7.65;100.00;99751.03;5151229;27;20057;-50
2022/01/23 03:55:41;;;;;;;20.35;8.70;;;;;;;-7.58;100.00;99770.38;5151276;27;20047;-49
2022/01/23 03:58:08;;;;;;;22.40;8.95;;;;;;;-7.49;100.00;99784.16;5151542;27;20127;-49
2022/01/23 04:00:35;;;;;;;18.42;9.23;;;;;;;-7.36;100.00;99785.78;5151416;27;20056;-51
2022/01/23 04:03:01;;;;;;;20.42;7.75;;;;;;;-7.45;100.00;99790.66;5150791;27;20054;-49
2022/01/23 04:05:28;;;;;;;18.65;8.60;;;;;;;-7.38;100.00;99787.88;5151582;27;20051;-52
2022/01/23 04:07:54;;;;;;;16.52;7.68;;;;;;;-7.32;100.00;99812.78;5151188;27;20050;-49
2022/01/23 04:10:23;;;;;;;17.85;7.55;;;;;;;-7.29;100.00;99813.13;5151315;27;20517;-50
2022/01/23 04:12:53;;;;;;;16.05;8.13;;;;;;;-7.30;100.00;99806.16;5151204;27;20474;-49
2022/01/23 04:15:30;;;;;;;16.63;7.78;;;;;;;-7.29;100.00;99796.34;5151182;27;20046;-52
2022/01/23 04:20:49;;;;;;;18.75;7.88;;;;;;;-7.29;100.00;99797.13;5124382;27;20050;-49
2022/01/23 04:31:51;;;;;;;16.73;8.48;;;;;;;-7.46;100.00;99813.00;5151023;27;20376;-49
2022/01/23 04:34:22;;;;;;;12.02;5.30;;;;;;;-7.38;100.00;99825.16;5150668;27;20050;-49
2022/01/23 04:45:25;;;;;;;;;;;;;;;-7.34;100.00;99808.47;5153375;27;20054;-51
2022/01/23 05:02:02;;;;;;;11.95;6.85;;;;;;;-7.23;100.00;99801.53;5153774;27;20552;-51
2022/01/23 05:04:31;;;;;;;14.40;6.28;;;;;;;-7.17;100.00;99808.59;5154228;27;20178;-50
2022/01/23 05:07:00;;;;;;;15.02;7.18;;;;;;;-7.16;100.00;99810.22;5154302;27;20047;-52
2022/01/23 05:09:28;;;;;;;13.30;7.18;;;;;;;-7.25;100.00;99794.81;5154214;27;20050;-50
2022/01/23 05:11:57;;;;;;;14.23;7.40;;;;;;;-7.21;100.00;99795.97;5153964;27;20058;-50
2022/01/23 05:14:29;;;;;;;13.43;6.65;;;;;;;-7.28;100.00;99780.09;5153739;27;20046;-49
2022/01/23 05:16:55;;;;;;;13.18;6.10;;;;;;;-7.21;100.00;99782.66;5153807;27;20089;-52
2022/01/23 05:19:22;;;;;;;14.65;6.50;;;;;;;-7.27;100.00;99765.72;5153755;27;20421;-49
2022/01/23 05:24:36;;;;;;;14.73;6.63;;;;;;;-7.43;100.00;99750.44;5152743;27;20055;-52
2022/01/23 05:27:06;;;;;;;10.60;5.70;;;;;;;-7.50;100.00;99763.09;5154019;27;20051;-49
2022/01/23 05:29:32;;;;;;;16.13;7.25;;;;;;;-7.62;100.00;99765.75;5153568;27;20287;-49
2022/01/23 05:31:59;;;;;;;14.50;6.43;;;;;;;-7.65;100.00;99775.00;5153877;27;20042;-51
2022/01/23 05:34:26;;;;;;;17.83;7.03;;;;;;;-7.65;100.00;99793.66;5153820;27;20416;-50
2022/01/23 05:36:53;;;;;;;17.73;7.78;;;;;;;-7.63;100.00;99804.06;5153461;27;20050;-50
2022/01/23 05:39:22;;;;;;;15.20;6.20;;;;;;;-7.67;100.00;99817.00;5153579;27;20043;-48
2022/01/23 05:41:52;;;;;;;13.52;6.40;;;;;;;-7.67;100.00;99829.53;5153349;27;20047;-50
2022/01/23 05:44:19;;;;;;;15.20;6.78;;;;;;;-7.59;100.00;99851.31;5153540;27;20518;-50
2022/01/23 05:46:45;;;;;;;11.60;6.00;;;;;;;-7.53;100.00;99859.41;5153474;27;20098;-49
2022/01/23 05:49:11;;;;;;;17.10;7.80;;;;;;;-7.59;100.00;99853.16;5153445;27;20420;-49
2022/01/23 05:51:38;;;;;;;18.40;7.00;;;;;;;-7.46;100.00;99874.25;5153294;27;20071;-50
2022/01/23 05:54:05;;;;;;;15.90;7.50;;;;;;;-7.38;100.00;99887.22;5153454;27;20073;-51
2022/01/23 05:56:31;;;;;;;15.77;7.68;;;;;;;-7.33;100.00;99891.84;5152517;27;20047;-50
2022/01/23 05:58:57;;;;;;;15.02;7.82;;;;;;;-7.36;100.00;99881.69;5153466;27;20050;-48
2022/01/23 06:01:24;;;;;;;12.07;5.57;;;;;;;-7.25;100.00;99874.75;5153199;27;20444;-49
2022/01/23 06:03:50;;;;;;;18.35;7.93;;;;;;;-7.26;100.00;99854.44;5152741;27;20057;-48
2022/01/23 06:06:16;;;;;;;12.90;5.80;;;;;;;-7.14;100.00;99861.41;5153172;27;20512;-50
2022/01/23 06:08:43;;;;;;;13.63;7.10;;;;;;;-7.09;100.00;99838.63;5152932;27;20568;-49
2022/01/23 06:11:10;;;;;;;16.08;6.35;;;;;;;-7.14;100.00;99809.97;5153292;27;20137;-49
2022/01/23 06:13:36;;;;;;;18.58;7.32;;;;;;;-7.34;100.00;99773.84;5152910;27;20043;-49
2022/01/23 06:16:03;;;;;;;13.90;7.00;;;;;;;-7.44;100.00;99760.31;5152870;27;20066;-49
2022/01/23 06:18:29;;;;;;;11.85;6.38;;;;;;;-7.20;100.00;99790.41;5152914;27;20057;-49
2022/01/23 06:20:55;;;;;;;8.77;5.45;;;;;;;-7.38;100.00;99755.91;5152744;27;20047;-50
2022/01/23 06:23:24;;;;;;;11.95;6.40;;;;;;;-7.46;100.00;99740.25;5152742;27;20103;-51
2022/01/23 06:25:50;;;;;;;16.83;8.70;;;;;;;-7.36;100.00;99769.81;5153027;27;20058;-50
2022/01/23 06:28:36;;;;;;;18.85;7.57;;;;;;;-7.32;100.00;99781.63;5152710;27;20050;-50
2022/01/23 06:31:02;;;;;;;20.35;7.57;;;;;;;-7.28;100.00;99777.44;5152700;27;20050;-50
2022/01/23 06:33:29;;;;;;;12.85;6.93;;;;;;;-7.21;100.00;99775.47;5152789;27;20130;-49
2022/01/23 06:35:56;;;;;;;21.02;7.18;;;;;;;-7.12;100.00;99773.25;5152690;27;20050;-50
2022/01/23 06:38:22;;;;;;;12.90;7.25;;;;;;;-7.34;100.00;99746.41;5152543;27;20123;-50
2022/01/23 06:40:48;;;;;;;14.32;7.13;;;;;;;-7.33;100.00;99753.34;5152532;27;20047;-49
2022/01/23 06:43:14;;;;;;;12.98;5.80;;;;;;;-7.26;100.00;99775.38;5152407;27;20501;-49
2022/01/23 06:45:41;;;;;;;12.98;7.20;;;;;;;-7.23;100.00;99774.91;5152762;27;20050;-50
2022/01/23 06:48:08;;;;;;;16.05;7.40;;;;;;;-7.25;100.00;99762.84;5152937;27;20634;-49
2022/01/23 06:50:34;;;;;;;13.55;6.15;;;;;;;-7.23;100.00;99774.06;5152636;27;20046;-50
2022/01/23 06:53:00;;;;;;;18.60;7.85;;;;;;;-7.18;100.00;99788.31;5152624;27;20061;-50
2022/01/23 06:55:26;;;;;;;17.30;7.97;;;;;;;-7.18;100.00;99790.19;5152190;27;20046;-51
2022/01/23 06:57:53;;;;;;;14.55;6.68;;;;;;;-7.27;100.00;99784.38;5152255;27;20059;-49
2022/01/23 07:00:19;;;;;;;13.00;5.88;;;;;;;-7.17;100.00;99795.25;5152257;27;20051;-54
2022/01/23 07:02:46;;;;;;;15.95;7.30;;;;;;;-7.12;100.00;99781.25;5151568;27;20055;-51
2022/01/23 07:05:12;;;;;;;16.90;6.97;;;;;;;-7.12;100.00;99749.28;5152169;27;20054;-50
2022/01/23 07:07:38;;;;;;;15.55;7.35;;;;;;;-7.04;100.00;99751.56;5151176;27;20050;-52
2022/01/23 07:10:06;;;;;;;12.30;6.70;;;;;;;-6.97;100.00;99738.91;5152094;27;20080;-50
2022/01/23 07:12:32;;;;;;;12.98;6.60;;;;;;;-6.94;100.00;99714.47;5152518;27;20094;-49
2022/01/23 07:14:58;;;;;;;15.63;7.32;;;;;;;-6.82;100.00;99701.09;5152192;27;20050;-50
2022/01/23 07:17:24;;;;;;;13.90;7.43;;;;;;;-6.73;100.00;99690.84;5152003;27;20053;-51
2022/01/23 07:19:51;;;;;;;21.95;7.95;;;;;;;-6.74;100.00;99652.72;5152085;27;20050;-49
2022/01/23 07:22:17;;;;;;;14.38;7.18;;;;;;;-6.74;100.00;99638.56;5151860;27;20057;-49
2022/01/23 07:24:44;;;;;;;12.98;6.57;;;;;;;-6.71;100.00;99641.56;5152265;27;20051;-51
2022/01/23 07:27:16;;;;;;;14.23;6.72;;;;;;;-6.72;100.00;99633.81;5151935;27;20406;-51
2022/01/23 07:29:43;;;;;;;12.85;6.03;;;;;;;-6.67;100.00;99637.38;5151672;27;20057;-51
2022/01/23 07:32:10;;;;;;;14.70;6.28;;;;;;;-6.73;100.00;99638.34;5151587;27;20050;-49
2022/01/23 07:34:36;;;;;;;14.95;6.90;;;;;;;-6.71;100.00;99636.25;5151855;27;20466;-51
2022/01/23 07:37:04;;;;;;;16.65;7.75;;;;;;;-6.63;100.00;99640.34;5151862;27;20417;-50
2022/01/23 07:39:30;;;;;;;14.57;7.03;;;;;;;-6.60;100.00;99636.41;5151664;27;20094;-50
2022/01/23 07:41:56;;;;;;;20.73;7.97;;;;;;;-6.62;100.00;99644.66;5151730;27;20450;-49
2022/01/23 07:44:22;;;;;;;17.25;7.60;;;;;;;-6.48;100.00;99661.16;5151375;27;20046;-49
2022/01/23 07:46:51;;;;;;;17.38;6.78;;;;;;;-6.37;100.00;99664.81;5151786;27;20042;-49
2022/01/23 07:49:17;;;;;;;17.05;6.93;;;;;;;-6.32;100.00;99662.25;5151533;27;20055;-50
2022/01/23 07:51:44;;;;;;;17.70;7.57;;;;;;;-6.34;100.00;99664.34;5151570;27;20050;-52
2022/01/23 07:54:11;;;;;;;17.80;7.82;;;;;;;-6.41;100.00;99653.81;5151268;27;20057;-49
2022/01/23 07:56:38;;;;;;;15.70;7.32;;;;;;;-6.34;100.00;99667.81;5151337;27;20046;-49
2022/01/23 07:59:05;;;;;;;15.88;6.90;;;;;;;-6.37;100.00;99654.94;5151314;27;20068;-50
2022/01/23 08:01:31;;;;;;;20.45;8.40;;;;;;;-6.44;100.00;99657.78;5151635;27;20051;-50
2022/01/23 08:03:58;;;;;;;18.13;8.65;;;;;;;-6.41;100.00;99661.81;5150732;27;20050;-48
2022/01/23 08:06:28;;;;;;;17.88;7.07;;;;;;;-6.22;100.00;99708.56;5151222;27;20095;-53
2022/01/23 08:08:56;;;;;;;25.33;9.18;;;;;;;-6.04;100.00;99722.72;5151250;27;20098;-49
2022/01/23 08:11:22;;;;;;;16.05;8.40;;;;;;;-5.94;100.00;99713.03;5151124;27;20098;-49
2022/01/23 08:13:49;;;;;;;19.73;8.50;;;;;;;-5.98;100.00;99687.88;5151418;27;20421;-50
2022/01/23 08:16:15;;;;;;;15.82;7.65;;;;;;;-5.88;100.00;99689.06;5151038;27;20076;-52
2022/01/23 08:18:41;;;;;;;15.27;7.75;;;;;;;-5.87;100.00;99670.09;5151477;27;20054;-52
2022/01/23 08:21:08;;;;;;;19.75;8.65;;;;;;;-5.86;100.00;99671.75;5154736;27;20421;-50
2022/01/23 08:23:38;;;;;;;16.17;7.30;;;;;;;-5.78;100.00;99671.31;5154668;27;20058;-50
2022/01/23 08:26:04;;;;;;;17.27;7.88;;;;;;;-5.71;100.00;99666.59;5154890;27;20463;-49
2022/01/23 08:28:31;;;;;;;15.27;7.85;;;;;;;-5.53;100.00;99676.22;5154787;27;20406;-49
2022/01/23 08:30:57;;;;;;;17.42;8.10;;;;;;;-5.47;100.00;99650.34;5154545;27;20098;-50
2022/01/23 08:33:24;;;;;;;20.65;8.52;;;;;;;-5.48;100.00;99614.03;5154759;27;20115;-50
2022/01/23 08:35:53;;;;;;;13.88;7.63;;;;;;;-5.41;100.00;99595.13;5154502;27;20055;-49
2022/01/23 08:38:19;;;;;;;16.20;8.13;;;;;;;-5.19;100.00;99603.16;5154541;27;20474;-51
2022/01/23 08:40:48;;;;;;;17.42;8.55;;;;;;;-5.05;100.00;99591.78;5154814;27;20054;-49
2022/01/23 08:43:17;;;;;;;18.00;8.68;;;;;;;-5.06;100.00;99538.59;5154430;27;20079;-50
2022/01/23 08:45:45;;;;;;;16.85;7.72;;;;;;;-5.28;100.00;99511.91;5154860;27;20057;-49
2022/01/23 08:48:11;;;;;;;16.02;8.38;;;;;;;-5.32;100.00;99514.28;5154669;27;20489;-49
2022/01/23 08:50:38;;;;;;;18.55;8.85;;;;;;;-5.11;100.00;99517.13;5154605;27;20847;-49
2022/01/23 08:53:05;;;;;;;15.20;8.68;;;;;;;-5.03;100.00;99524.69;5154722;27;20049;-50
2022/01/23 08:55:31;;;;;;;18.67;9.15;;;;;;;-5.08;100.00;99514.75;5154670;27;20383;-49
2022/01/23 08:57:58;;;;;;;14.07;7.72;;;;;;;-4.96;100.00;99525.31;5154508;27;20478;-53
2022/01/23 09:00:24;;;;;;;15.30;7.28;;;;;;;-4.78;100.00;99532.13;5154499;27;20099;-50
2022/01/23 09:02:51;;;;;;;14.85;7.65;;;;;;;-4.71;100.00;99527.38;5153791;27;20095;-50
2022/01/23 09:05:18;;;;;;;15.23;7.75;;;;;;;-4.83;100.00;99490.13;5154288;27;20051;-52
2022/01/23 09:07:44;;;;;;;16.02;7.72;;;;;;;-4.87;100.00;99493.53;5154300;27;20415;-55
2022/01/23 09:10:10;;;;;;;24.83;7.68;;;;;;;-4.78;100.00;99498.16;5154024;27;20489;-50
2022/01/23 09:12:55;;;;;;;17.60;9.25;;;;;;;-4.92;100.00;99480.94;5153914;27;20042;-50
2022/01/23 09:15:21;;;;;;;;;;;;;;;-4.96;100.00;99506.59;5154163;27;20050;-51
2022/01/23 09:17:47;;;;;;;16.33;7.65;;;;;;;-5.06;100.00;99509.97;5153823;27;20022;-50
2022/01/23 09:20:15;;;;;;;18.08;7.57;;;;;;;-5.24;100.00;99505.78;5153907;27;20063;-52
2022/01/23 09:22:41;;;;;;;17.60;8.07;;;;;;;-5.36;100.00;99515.03;5153803;27;20055;-53
2022/01/23 09:25:08;;;;;;;16.17;6.97;;;;;;;-5.46;100.00;99527.22;5153799;27;20050;-52
2022/01/23 09:27:38;;;;;;;16.25;8.48;;;;;;;-5.52;100.00;99538.09;5153673;27;20049;-51
2022/01/23 09:30:06;;;;;;;18.30;8.55;;;;;;;-5.36;100.00;99571.16;5153492;27;20099;-49
2022/01/23 09:32:33;;;;;;;15.40;8.13;;;;;;;-5.46;100.00;99569.16;5152739;27;20133;-49
2022/01/23 09:34:59;;;;;;;19.58;8.82;;;;;;;-5.68;100.00;99561.94;5153900;27;20382;-49
2022/01/23 09:37:26;;;;;;;18.35;8.07;;;;;;;-5.69;100.00;99597.75;5153350;27;20550;-49
2022/01/23 09:39:53;;;;;;;14.05;7.18;;;;;;;-5.69;100.00;99616.44;5153772;27;20047;-49
2022/01/23 09:42:23;;;;;;;16.60;7.75;;;;;;;-5.71;100.00;99631.09;5153593;27;20094;-51
2022/01/23 09:44:52;;;;;;;16.80;8.00;;;;;;;-5.55;100.00;99662.28;5153454;27;20062;-50
2022/01/23 09:47:20;;;;;;;16.30;7.93;;;;;;;-5.72;100.00;99680.22;5153529;27;20138;-51
2022/01/23 09:49:48;;;;;;;15.88;6.80;;;;;;;-5.64;100.00;99708.38;5153400;27;20049;-50
2022/01/23 09:52:15;;;;;;;19.15;8.85;;;;;;;-5.61;100.00;99732.72;5153525;27;20050;-50
2022/01/23 09:54:44;;;;;;;27.50;9.13;;;;;;;-5.49;100.00;99762.03;5153023;27;20055;-51
2022/01/23 09:57:11;;;;;;;19.38;8.68;;;;;;;-5.42;100.00;99751.97;5153124;27;20051;-49
2022/01/23 09:59:39;;;;;;;17.55;8.02;;;;;;;-5.35;100.00;99746.47;5152947;27;20502;-51
2022/01/23 10:02:08;;;;;;;15.07;7.35;;;;;;;-5.48;100.00;99751.09;5153046;27;20053;-51
2022/01/23 10:04:34;;;;;;;15.85;8.27;;;;;;;-5.43;100.00;99771.75;5152264;27;20088;-52
2022/01/23 10:07:04;;;;;;;19.35;8.73;;;;;;;-5.44;100.00;99778.13;5152956;27;20054;-50
2022/01/23 10:09:32;;;;;;;17.80;8.95;;;;;;;-5.62;100.00;99767.72;5152926;27;20054;-52
2022/01/23 10:11:59;;;;;;;17.05;8.85;;;;;;;-5.50;100.00;99808.47;5152945;27;20042;-51
2022/01/23 10:14:26;;;;;;;18.77;9.02;;;;;;;-5.52;100.00;99807.94;5152794;27;20042;-51
2022/01/23 10:16:52;;;;;;;17.95;8.32;;;;;;;-5.42;100.00;99828.66;5152564;27;20046;-49
2022/01/23 10:19:18;;;;;;;15.82;8.05;;;;;;;-5.50;100.00;99817.34;5152875;27;20057;-50
2022/01/23 10:21:45;;;;;;;18.20;9.60;;;;;;;-5.56;100.00;99807.63;5152771;27;20043;-49
2022/01/23 10:24:13;;;;;;;18.25;8.55;;;;;;;-5.49;100.00;99832.31;5152805;27;20042;-51
2022/01/23 10:26:46;;;;;;;21.85;9.18;;;;;;;-5.62;100.00;99823.81;5152489;27;20050;-50
2022/01/23 10:29:16;;;;;;;16.88;8.13;;;;;;;-5.65;100.00;99824.28;5152444;27;20516;-52
2022/01/23 10:32:19;;;;;;;23.17;8.60;;;;;;;-5.65;100.00;99842.97;5152473;27;20049;-51
2022/01/23 10:34:49;;;;;;;10.85;6.35;;;;;;;-5.77;100.00;99846.50;5048387;28;20112;-51
2022/01/23 10:37:26;;;;;;;16.35;7.55;;;;;;;-5.80;100.00;99883.56;5048105;28;20503;-51
2022/01/23 10:39:53;;;;;;;19.92;7.97;;;;;;;-5.65;100.00;99917.78;5048403;28;20087;-50
2022/01/23 10:42:46;;;;;;;13.40;7.00;;;;;;;-5.53;100.00;99930.03;5048229;28;20464;-51
2022/01/23 10:48:25;;;;;;;18.08;7.35;;;;;;;-5.70;100.00;99889.09;5018500;28;20045;-50
2022/01/23 10:51:11;;;;;;;15.80;7.85;;;;;;;-5.52;100.00;99920.97;5048153;28;20053;-49
2022/01/23 10:54:06;;;;;;;18.98;8.30;;;;;;;-5.42;100.00;99909.63;5048144;28;20080;-49
2022/01/23 10:56:37;;;;;;;18.10;7.72;;;;;;;-5.26;100.00;99903.50;5048005;28;20106;-51
2022/01/23 10:59:06;;;;;;;19.10;8.13;;;;;;;-5.37;100.00;99855.44;5048123;28;20175;-51
2022/01/23 11:01:33;;;;;;;16.80;7.43;;;;;;;-5.39;100.00;99852.22;5048206;28;20060;-49
2022/01/23 11:04:08;;;;;;;15.25;8.20;;;;;;;-5.30;100.00;99872.13;5047479;28;20092;-50
2022/01/23 11:06:57;;;;;;;14.68;7.70;;;;;;;-5.29;100.00;99879.91;5144926;27;20106;-51
2022/01/23 11:09:29;;;;;;;12.02;6.40;;;;;;;-5.34;100.00;99865.66;5152264;27;20050;-50
2022/01/23 11:12:02;;;;;;;17.30;7.45;;;;;;;-5.32;100.00;99874.25;5151770;27;20046;-51
2022/01/23 11:17:26;;;;;;;13.85;6.90;;;;;;;-5.18;100.00;99885.44;5151847;27;20110;-50
2022/01/23 11:19:58;;;;;;;16.60;7.65;;;;;;;-5.04;100.00;99914.25;5151973;27;20054;-51
2022/01/23 11:22:26;;;;;;;14.45;7.20;;;;;;;-4.88;100.00;99912.63;5151745;27;20513;-52
2022/01/23 11:24:56;;;;;;;14.10;7.70;;;;;;;-4.83;100.00;99879.78;5151710;27;20086;-51
2022/01/23 11:27:23;;;;;;;18.92;7.90;;;;;;;-4.87;100.00;99842.03;5152007;27;20051;-50
2022/01/23 11:29:58;;;;;;;14.75;7.82;;;;;;;-4.87;100.00;99812.59;5151497;27;20050;-51
2022/01/23 11:32:28;;;;;;;16.02;7.78;;;;;;;-4.89;100.00;99803.22;5151834;27;20521;-50
2022/01/23 11:35:04;;;;;;;15.73;8.02;;;;;;;-4.78;100.00;99818.34;5151470;27;20082;-50
2022/01/23 11:37:32;;;;;;;12.23;6.63;;;;;;;-4.82;100.00;99803.84;5151395;27;20487;-50
2022/01/23 11:40:04;;;;;;;17.85;7.20;;;;;;;-4.84;100.00;99798.72;5151637;27;20046;-50
2022/01/23 11:51:07;;;;;;;13.35;6.97;;;;;;;-5.09;100.00;99828.63;5151511;27;20045;-49
2022/01/23 11:53:48;;;;;;;15.65;7.13;;;;;;;-4.89;100.00;99854.03;5150587;27;20055;-51
2022/01/23 11:56:42;;;;;;;15.23;7.45;;;;;;;-4.64;100.00;99872.28;5150946;27;20058;-49
2022/01/23 11:59:25;;;;;;;15.83;7.73;;;;;;;-4.64;100.00;99854.38;5151662;27;20050;-50
2022/01/23 12:05:27;;;;;;;12.80;7.25;;;;;;;-4.70;100.00;99830.47;5150590;27;20051;-51
2022/01/23 12:08:32;;;;;;;12.55;6.18;;;;;;;-4.91;100.00;99832.06;5146341;27;20058;-51
2022/01/23 12:17:23;;;;;;;16.88;6.70;;;;;;;-4.77;100.00;99919.72;5150999;27;20528;-51
2022/01/23 12:19:53;;;;;;;10.52;5.90;;;;;;;-4.88;100.00;99899.25;5150844;27;20137;-52
2022/01/23 12:22:32;;;;;;;14.45;5.60;;;;;;;-4.94;100.00;99912.78;5150946;27;20050;-51
2022/01/23 12:25:13;;;;;;;11.95;6.28;;;;;;;-5.08;100.00;99890.94;5151254;27;20051;-54
2022/01/23 12:27:39;;;;;;;13.27;7.50;;;;;;;-5.03;100.00;99899.00;5150884;27;20053;-52
2022/01/23 12:30:33;;;;;;;11.05;6.32;;;;;;;-5.03;100.00;99918.56;5151059;27;20046;-51
2022/01/23 12:33:20;;;;;;;13.43;7.05;;;;;;;-4.99;100.00;99938.41;5150822;27;20051;-50
2022/01/23 12:35:48;;;;;;;16.08;6.78;;;;;;;-5.02;100.00;99940.75;5150790;27;20046;-53
2022/01/23 12:38:17;;;;;;;12.75;6.70;;;;;;;-5.05;100.00;99952.75;5150826;27;20051;-52
2022/01/23 12:40:46;;;;;;;12.50;6.82;;;;;;;-5.16;100.00;99953.66;5150658;27;20054;-53
2022/01/23 12:43:15;;;;;;;12.80;6.53;;;;;;;-5.02;100.00;99986.22;5150753;27;20046;-50
2022/01/23 12:45:56;;;;;;;13.73;6.63;;;;;;;-5.03;100.00;99971.22;5150843;27;20058;-51
2022/01/23 12:48:48;;;;;;;11.80;6.10;;;;;;;-5.04;100.00;99957.03;5150818;27;20050;-51
2022/01/23 12:51:38;;;;;;;12.63;6.25;;;;;;;-4.97;100.00;99960.34;5150487;27;20050;-51
2022/01/23 12:54:30;;;;;;;14.70;6.75;;;;;;;-5.01;100.00;99977.94;5150519;27;20050;-51
2022/01/23 12:57:04;;;;;;;14.30;6.47;;;;;;;-5.12;100.00;99983.38;5150594;27;20191;-50
2022/01/23 12:59:33;;;;;;;;;;;;;;;-5.18;100.00;99995.84;5150759;27;20050;-51
2022/01/23 13:02:04;;;;;;;15.00;6.55;;;;;;;-5.24;100.00;100018.19;5150756;27;20022;-52
2022/01/23 13:04:33;;;;;;;12.57;6.40;;;;;;;-5.13;100.00;100043.22;5149918;27;20046;-50
2022/01/23 13:07:12;;;;;;;9.38;6.15;;;;;;;-5.17;100.00;100040.22;5153872;27;20047;-51
2022/01/23 13:09:47;;;;;;;15.98;6.88;;;;;;;-5.12;100.00;100044.88;5154202;27;20089;-49
2022/01/23 13:12:29;;;;;;;12.55;7.13;;;;;;;-5.11;100.00;100030.44;5154096;27;20123;-50
2022/01/23 13:15:12;;;;;;;11.68;5.78;;;;;;;-5.15;100.00;100010.59;5153897;27;20417;-50
2022/01/23 13:17:49;;;;;;;15.63;6.93;;;;;;;-5.02;100.00;100050.41;5153807;27;20497;-51
2022/01/23 13:31:39;;;;;;;12.15;6.35;;;;;;;-5.33;100.00;100038.31;5101381;27;20051;-50
2022/01/23 13:34:24;;;;;;;13.25;6.13;;;;;;;-5.54;100.00;100047.81;5153806;27;20099;-52
2022/01/23 13:36:58;;;;;;;12.20;5.90;;;;;;;-5.50;100.00;100081.84;5153551;27;20054;-50
2022/01/23 13:39:27;;;;;;;16.55;6.78;;;;;;;-5.53;100.00;100093.00;5153440;27;20054;-50
2022/01/23 13:42:04;;;;;;;11.68;6.18;;;;;;;-5.57;100.00;100115.88;5153473;27;20050;-51
2022/01/23 13:52:56;;;;;;;11.70;6.25;;;;;;;-5.61;100.00;100194.88;5153496;27;20629;-49
2022/01/23 14:00:58;;;;;;;10.57;5.85;;;;;;;-5.51;100.00;100288.63;5137005;27;20050;-50
2022/01/23 14:03:25;;;;;;;13.20;6.75;;;;;;;-5.35;100.00;100315.72;5152766;27;20497;-49
2022/01/23 14:05:52;;;;;;;13.07;6.72;;;;;;;-5.18;100.00;100348.72;5152960;27;20466;-50
2022/01/23 14:08:19;;;;;;;12.07;6.85;;;;;;;-5.15;100.00;100345.59;5153143;27;20046;-49